Time;durP1;ratioP1;P1;durP2;ratioP2;P2;SDS_P1;SDS_P2;PMS_P1;PMS_P2;Temp;Humidity;BMP_temperature;BMP_pressure;BME280_temperature;BME280_humidity;BME280_pressure;Samples;Min_cycle;Max_cycle;Signal;HPM_P1;HPM_P2
2023/05/31 00:00:33;;;;;;;6.40;2.30;;;;;;;15.82;49.75;98427.97;5013486;28;20203;-77
2023/05/31 00:02:59;;;;;;;3.17;1.97;;;;;;;15.71;50.58;98430.72;5013522;28;20301;-77
2023/05/31 00:05:25;;;;;;;3.20;1.87;;;;;;;15.78;49.10;98418.00;5013055;28;20741;-77
2023/05/31 00:07:52;;;;;;;5.60;2.23;;;;;;;15.75;50.76;98426.50;5013480;28;20631;-77
2023/05/31 00:10:18;;;;;;;2.87;1.83;;;;;;;15.68;49.07;98412.44;5013120;28;20393;-77
2023/05/31 00:12:44;;;;;;;5.30;2.30;;;;;;;15.73;48.49;98415.19;5013412;28;20202;-77
2023/05/31 00:15:11;;;;;;;4.23;1.77;;;;;;;15.58;48.77;98417.63;5013334;28;20227;-77
2023/05/31 00:17:37;;;;;;;2.83;1.87;;;;;;;15.64;49.14;98420.16;5013342;28;20214;-77
2023/05/31 00:20:04;;;;;;;5.30;2.30;;;;;;;15.63;50.11;98420.41;5013051;28;20210;-77
2023/05/31 00:22:30;;;;;;;2.53;1.93;;;;;;;15.45;51.25;98424.13;5013218;28;20693;-77
2023/05/31 00:24:56;;;;;;;6.33;2.37;;;;;;;15.47;51.73;98424.69;5013262;28;20207;-77
2023/05/31 00:27:23;;;;;;;3.23;1.80;;;;;;;15.52;50.46;98421.28;5013261;28;20233;-77
2023/05/31 00:29:49;;;;;;;4.23;1.90;;;;;;;15.37;50.32;98418.34;5012949;28;20207;-77
2023/05/31 00:32:16;;;;;;;4.90;2.00;;;;;;;15.25;51.41;98428.25;5013208;28;20662;-77
2023/05/31 00:34:42;;;;;;;3.47;2.03;;;;;;;15.23;51.79;98419.63;5013148;28;20582;-77
2023/05/31 00:37:09;;;;;;;3.50;1.77;;;;;;;15.17;52.23;98426.78;5013272;28;20317;-77
2023/05/31 00:39:35;;;;;;;3.53;2.10;;;;;;;15.15;52.43;98412.00;5012954;28;20674;-77
2023/05/31 00:42:02;;;;;;;2.80;1.70;;;;;;;15.13;54.27;98416.75;5012782;28;20688;-77
2023/05/31 00:44:28;;;;;;;2.60;2.00;;;;;;;15.05;53.51;98415.28;5013089;28;20218;-77
2023/05/31 00:46:55;;;;;;;2.83;1.77;;;;;;;14.95;53.73;98419.63;5013112;28;20250;-77
2023/05/31 00:49:22;;;;;;;5.67;1.80;;;;;;;14.95;54.25;98419.63;5016582;28;20207;-77
2023/05/31 00:51:49;;;;;;;2.63;1.70;;;;;;;14.98;52.64;98413.81;5016614;28;20217;-77
2023/05/31 00:54:16;;;;;;;3.47;1.90;;;;;;;14.96;53.97;98414.03;5016613;28;20206;-77
2023/05/31 00:56:42;;;;;;;5.80;2.40;;;;;;;14.85;54.27;98416.75;5016411;28;20238;-77
2023/05/31 00:59:09;;;;;;;3.57;2.20;;;;;;;14.84;53.39;98413.25;5016652;28;20225;-77
2023/05/31 01:01:36;;;;;;;5.53;2.07;;;;;;;14.90;54.18;98412.31;5016142;28;20255;-77
2023/05/31 01:04:03;;;;;;;5.80;1.90;;;;;;;14.91;54.52;98415.78;5016367;28;20217;-77
2023/05/31 01:06:32;;;;;;;3.47;2.20;;;;;;;14.78;54.22;98411.53;5016021;28;20241;-77
2023/05/31 01:09:01;;;;;;;4.40;2.40;;;;;;;14.77;55.85;98412.59;5016301;28;20257;-77
2023/05/31 01:11:52;;;;;;;3.50;2.13;;;;;;;14.79;53.32;98415.03;5015994;28;20742;-77
2023/05/31 01:14:43;;;;;;;3.53;2.00;;;;;;;14.77;54.71;98409.91;5015142;28;20677;-77
2023/05/31 01:18:09;;;;;;;3.00;2.10;;;;;;;14.70;55.25;98417.25;5014496;28;20578;-77
2023/05/31 01:20:38;;;;;;;3.23;1.80;;;;;;;14.78;53.75;98408.84;4998351;28;20207;-77
2023/05/31 01:23:49;;;;;;;3.73;1.83;;;;;;;14.91;53.45;98419.28;5016017;28;20242;-77
2023/05/31 01:26:37;;;;;;;3.73;2.20;;;;;;;14.81;54.77;98419.09;5011131;28;20254;-77
2023/05/31 01:29:17;;;;;;;2.70;1.90;;;;;;;14.75;52.85;98405.84;5015897;28;20257;-77
2023/05/31 01:31:46;;;;;;;2.63;1.70;;;;;;;14.78;54.26;98408.84;5015906;28;20222;-77
2023/05/31 01:34:13;;;;;;;3.83;2.20;;;;;;;14.73;53.57;98411.44;5015466;28;20736;-77
2023/05/31 01:36:40;;;;;;;4.03;1.87;;;;;;;14.79;53.78;98415.03;5015271;28;20241;-77
2023/05/31 01:39:07;;;;;;;3.10;1.90;;;;;;;14.81;51.42;98419.09;5015702;28;20206;-77
2023/05/31 01:41:39;;;;;;;2.67;1.73;;;;;;;14.88;51.93;98421.63;5015504;28;20294;-77
2023/05/31 01:44:07;;;;;;;2.67;1.57;;;;;;;14.75;51.62;98420.03;5015619;28;20194;-77
2023/05/31 01:46:33;;;;;;;3.70;2.10;;;;;;;14.70;51.87;98421.81;5016079;28;20582;-77
2023/05/31 01:49:02;;;;;;;6.50;1.70;;;;;;;14.78;50.87;98424.09;5015467;28;20214;-77
2023/05/31 01:51:32;;;;;;;4.00;2.10;;;;;;;14.84;49.12;98418.59;5015513;28;20612;-77
2023/05/31 01:53:58;;;;;;;2.77;1.83;;;;;;;14.89;50.57;98416.06;5015152;28;20217;-77
2023/05/31 01:56:28;;;;;;;3.67;1.70;;;;;;;14.89;50.20;98418.72;5015309;28;20230;-77
2023/05/31 01:58:56;;;;;;;2.47;1.83;;;;;;;14.82;52.48;98414.53;5014836;28;20213;-77
2023/05/31 02:01:23;;;;;;;2.60;1.80;;;;;;;14.84;50.80;98425.84;5015317;28;20206;-77
2023/05/31 02:03:51;;;;;;;3.70;1.90;;;;;;;14.72;50.10;98427.72;5015260;28;20233;-77
2023/05/31 02:06:18;;;;;;;2.83;1.70;;;;;;;14.81;49.58;98419.09;5014941;28;20288;-77
2023/05/31 02:08:44;;;;;;;3.03;1.90;;;;;;;14.90;48.73;98427.56;5014876;28;20670;-77
2023/05/31 02:11:11;;;;;;;2.73;1.47;;;;;;;14.98;48.70;98424.50;5015054;28;20221;-77
2023/05/31 02:13:37;;;;;;;2.93;1.83;;;;;;;14.93;49.29;98433.25;5015019;28;20576;-77
2023/05/31 02:16:04;;;;;;;3.57;1.60;;;;;;;14.91;49.19;98435.34;5015134;28;20231;-77
2023/05/31 02:18:30;;;;;;;2.53;1.60;;;;;;;14.94;49.34;98429.53;5014951;28;20215;-77
2023/05/31 02:20:57;;;;;;;3.87;1.83;;;;;;;15.01;47.32;98424.84;5014919;28;20213;-77
2023/05/31 02:23:24;;;;;;;2.83;1.60;;;;;;;14.93;47.67;98419.84;5014572;28;20552;-77
2023/05/31 02:25:51;;;;;;;2.83;1.70;;;;;;;14.83;49.04;98416.97;5014696;28;20230;-77
2023/05/31 02:28:18;;;;;;;2.93;1.63;;;;;;;14.92;48.81;98426.28;5014722;28;20206;-77
2023/05/31 02:30:55;;;;;;;4.30;2.10;;;;;;;14.79;50.15;98426.53;5014779;28;20202;-77
2023/05/31 02:33:21;;;;;;;2.43;1.60;;;;;;;14.72;49.78;98417.84;5014401;28;20669;-77
2023/05/31 02:35:48;;;;;;;2.73;1.87;;;;;;;14.73;50.97;98427.47;5014530;28;20288;-77
2023/05/31 02:38:14;;;;;;;2.10;1.57;;;;;;;14.62;50.50;98422.97;5014275;28;20670;-77
2023/05/31 02:40:40;;;;;;;2.83;1.93;;;;;;;14.59;50.89;98418.09;5014535;28;20249;-77
2023/05/31 02:43:07;;;;;;;3.23;2.20;;;;;;;14.56;51.59;98415.09;5014472;28;20218;-77
2023/05/31 02:45:33;;;;;;;2.50;1.83;;;;;;;14.48;51.22;98418.91;5014406;28;20222;-77
2023/05/31 02:48:01;;;;;;;3.70;2.07;;;;;;;14.51;51.90;98412.31;5014957;28;20206;-77
2023/05/31 02:50:28;;;;;;;3.17;1.90;;;;;;;14.55;53.36;98411.59;5014347;28;20206;-77
2023/05/31 02:52:54;;;;;;;2.97;1.87;;;;;;;14.51;51.41;98410.41;5015008;28;20536;-77
2023/05/31 02:55:21;;;;;;;3.37;1.70;;;;;;;14.54;50.79;98412.63;5013812;28;20724;-77
2023/05/31 02:57:47;;;;;;;5.40;1.93;;;;;;;14.36;51.78;98409.28;5014114;28;20295;-77
2023/05/31 03:00:14;;;;;;;3.33;1.80;;;;;;;14.34;50.68;98411.38;5014166;28;20211;-77
2023/05/31 03:02:41;;;;;;;2.13;1.67;;;;;;;14.38;52.46;98413.34;5013874;28;20260;-77
2023/05/31 03:05:09;;;;;;;2.00;1.80;;;;;;;14.38;53.35;98410.66;5014097;28;20213;-77
2023/05/31 03:07:38;;;;;;;2.60;1.80;;;;;;;14.38;51.86;98413.34;5013772;28;20289;-77
2023/05/31 03:10:06;;;;;;;3.30;1.60;;;;;;;14.23;52.99;98418.34;5013374;28;20207;-77
2023/05/31 03:12:32;;;;;;;4.13;1.80;;;;;;;14.25;53.03;98423.47;5014010;28;20211;-77
2023/05/31 03:14:59;;;;;;;4.97;2.20;;;;;;;14.17;51.69;98410.41;5013647;28;20688;-77
2023/05/31 03:17:25;;;;;;;2.90;1.90;;;;;;;14.24;52.29;98411.16;5013855;28;20583;-77
2023/05/31 03:19:52;;;;;;;3.37;1.90;;;;;;;14.34;51.28;98416.72;5013935;28;20229;-77
2023/05/31 03:22:18;;;;;;;4.10;1.60;;;;;;;14.29;52.10;98413.94;5013651;28;20210;-77
2023/05/31 03:24:45;;;;;;;5.17;1.83;;;;;;;14.45;50.83;98400.66;5013519;28;20670;-77
2023/05/31 03:27:11;;;;;;;4.80;1.90;;;;;;;14.42;52.44;98408.34;5013370;28;20705;-77
2023/05/31 03:29:41;;;;;;;3.00;1.73;;;;;;;14.40;51.78;98421.97;5013825;28;20611;-77
2023/05/31 03:32:08;;;;;;;2.83;1.77;;;;;;;14.27;53.00;98422.19;5013524;28;20749;-77
2023/05/31 03:34:34;;;;;;;4.57;2.07;;;;;;;14.26;54.13;98420.56;5013299;28;20207;-77
2023/05/31 03:37:02;;;;;;;4.60;2.00;;;;;;;14.23;53.37;98415.69;5013210;28;20237;-77
2023/05/31 03:39:28;;;;;;;2.77;1.50;;;;;;;14.18;53.96;98410.19;5013651;28;20245;-77
2023/05/31 03:41:55;;;;;;;4.73;1.97;;;;;;;14.25;51.02;98413.56;5013355;28;20654;-77
2023/05/31 03:44:21;;;;;;;3.60;1.60;;;;;;;14.42;51.41;98413.72;5013503;28;20213;-77
2023/05/31 03:46:48;;;;;;;3.57;2.00;;;;;;;14.44;50.53;98417.78;5013636;28;20219;-77
2023/05/31 03:49:14;;;;;;;4.07;1.90;;;;;;;14.35;52.25;98419.19;5013186;28;20615;-77
2023/05/31 03:51:40;;;;;;;4.53;2.20;;;;;;;14.28;52.51;98421.16;5013478;28;20214;-77
2023/05/31 03:54:07;;;;;;;2.73;1.67;;;;;;;14.26;52.29;98415.22;5013335;28;20274;-77
2023/05/31 03:56:33;;;;;;;3.03;2.10;;;;;;;14.28;52.55;98421.16;5013335;28;20245;-77
2023/05/31 03:58:59;;;;;;;5.63;2.20;;;;;;;14.31;53.08;98423.38;5012985;28;20210;-77
2023/05/31 04:01:26;;;;;;;5.17;1.97;;;;;;;14.37;52.81;98416.25;5013678;28;20606;-77
2023/05/31 04:03:53;;;;;;;4.07;2.00;;;;;;;14.29;53.65;98430.78;5012820;28;20238;-77
2023/05/31 04:06:20;;;;;;;3.17;1.97;;;;;;;14.25;52.96;98423.47;5012954;28;20241;-77
2023/05/31 04:08:47;;;;;;;3.87;2.20;;;;;;;14.30;52.52;98428.94;5013276;28;20297;-77
2023/05/31 04:11:13;;;;;;;3.50;1.80;;;;;;;14.14;52.67;98424.25;5013202;28;20202;-77
2023/05/31 04:13:40;;;;;;;4.17;2.33;;;;;;;14.15;53.45;98429.38;5013627;28;20205;-77
2023/05/31 04:16:06;;;;;;;2.90;2.10;;;;;;;14.26;52.51;98431.28;5013216;28;20240;-76
2023/05/31 04:18:32;;;;;;;3.13;2.10;;;;;;;14.35;52.81;98435.22;5013188;28;20202;-77
2023/05/31 04:20:59;;;;;;;2.97;2.00;;;;;;;14.40;51.79;98437.19;5013340;28;20218;-77
2023/05/31 04:23:25;;;;;;;4.17;2.17;;;;;;;14.56;53.59;98441.84;5016626;28;20666;-77
2023/05/31 04:25:52;;;;;;;4.47;2.23;;;;;;;14.43;56.36;98437.53;5016712;28;20735;-77
2023/05/31 04:28:19;;;;;;;2.97;2.00;;;;;;;14.25;54.09;98443.00;5016815;28;20216;-77
2023/05/31 04:30:46;;;;;;;4.20;2.07;;;;;;;14.42;52.33;98443.13;5016811;28;20297;-77
2023/05/31 04:33:12;;;;;;;5.73;2.17;;;;;;;14.46;54.66;98450.44;5016100;28;20692;-77
2023/05/31 04:35:40;;;;;;;3.90;2.47;;;;;;;14.37;55.97;98443.81;5016075;28;20245;-77
2023/05/31 04:38:07;;;;;;;4.73;2.50;;;;;;;14.46;55.12;98447.78;5016626;28;20216;-77
2023/05/31 04:40:33;;;;;;;5.43;2.00;;;;;;;14.45;54.42;98443.47;5016181;28;20301;-77
2023/05/31 04:43:00;;;;;;;5.50;2.17;;;;;;;14.56;54.58;98450.66;5016270;28;20660;-77
2023/05/31 04:45:27;;;;;;;3.07;2.10;;;;;;;14.59;51.86;98446.69;5016421;28;20234;-77
2023/05/31 04:47:55;;;;;;;3.60;2.17;;;;;;;14.63;52.79;98451.38;5016376;28;20210;-77
2023/05/31 04:50:21;;;;;;;4.60;2.00;;;;;;;14.74;53.18;98453.19;5016106;28;20693;-77
2023/05/31 04:52:51;;;;;;;4.87;2.00;;;;;;;14.69;54.32;98439.72;5016406;28;20209;-77
2023/05/31 04:55:18;;;;;;;3.03;2.00;;;;;;;14.78;51.72;98449.00;5016363;28;20210;-77
2023/05/31 04:57:44;;;;;;;3.80;2.10;;;;;;;14.77;51.63;98455.41;5016042;28;20681;-77
2023/05/31 05:00:15;;;;;;;3.30;2.30;;;;;;;14.86;51.08;98456.69;5016298;28;20211;-77
2023/05/31 05:02:42;;;;;;;5.00;2.17;;;;;;;15.05;52.32;98460.81;5016069;28;20532;-76
2023/05/31 05:05:09;;;;;;;3.57;2.23;;;;;;;15.40;49.91;98458.84;5015986;28;20669;-77
2023/05/31 05:07:36;;;;;;;3.20;2.20;;;;;;;15.99;49.49;98455.63;5016415;28;20229;-77
2023/05/31 05:10:03;;;;;;;3.00;2.10;;;;;;;15.95;47.88;98453.66;5016410;28;20206;-77
2023/05/31 05:12:30;;;;;;;3.83;2.20;;;;;;;16.25;47.73;98454.16;5015952;28;20207;-77
2023/05/31 05:14:57;;;;;;;3.53;2.10;;;;;;;16.46;49.26;98454.22;5015581;28;20674;-77
2023/05/31 05:17:23;;;;;;;2.93;2.00;;;;;;;16.90;47.45;98463.97;5015521;28;20697;-77
2023/05/31 05:19:50;;;;;;;5.73;2.23;;;;;;;17.70;45.10;98447.97;5016013;28;20232;-77
2023/05/31 05:22:18;;;;;;;4.50;2.27;;;;;;;17.74;45.12;98462.53;5015626;28;20636;-77
2023/05/31 05:24:44;;;;;;;3.07;2.17;;;;;;;18.26;43.56;98461.63;5015876;28;20207;-77
2023/05/31 05:27:10;;;;;;;2.67;1.80;;;;;;;17.41;45.85;98471.59;5015967;28;20218;-77
2023/05/31 05:29:37;;;;;;;4.30;2.20;;;;;;;16.76;46.30;98467.25;5015762;28;20217;-77
2023/05/31 05:32:03;;;;;;;3.10;2.13;;;;;;;16.72;47.55;98466.94;5015732;28;20210;-77
2023/05/31 05:34:30;;;;;;;2.93;2.10;;;;;;;17.10;46.73;98461.53;5014960;28;20207;-77
2023/05/31 05:36:57;;;;;;;4.70;2.40;;;;;;;16.29;49.81;98457.97;5015312;28;20235;-77
2023/05/31 05:39:23;;;;;;;3.10;2.10;;;;;;;16.53;49.16;98462.94;5015504;28;20217;-77
2023/05/31 05:41:49;;;;;;;4.20;2.10;;;;;;;16.55;47.29;98458.13;5016938;28;20670;-76
2023/05/31 05:44:16;;;;;;;6.93;2.40;;;;;;;16.62;49.03;98466.00;5015418;28;20218;-76
2023/05/31 05:46:42;;;;;;;3.07;1.77;;;;;;;16.47;50.78;98463.91;5014562;28;20242;-77
2023/05/31 05:49:08;;;;;;;4.20;2.23;;;;;;;16.53;50.73;98467.47;5015568;28;20210;-77
2023/05/31 05:51:35;;;;;;;3.90;2.20;;;;;;;16.82;51.04;98467.09;5015549;28;20662;-77
2023/05/31 05:54:03;;;;;;;4.00;2.37;;;;;;;16.89;50.08;98470.41;5015459;28;20301;-76
2023/05/31 05:56:29;;;;;;;4.83;2.00;;;;;;;17.07;47.00;98472.78;5015074;28;20230;-77
2023/05/31 05:58:55;;;;;;;4.37;2.10;;;;;;;17.09;46.99;98465.28;5016154;28;20208;-77
2023/05/31 06:01:23;;;;;;;5.47;2.30;;;;;;;17.13;48.54;98469.09;5015031;28;20214;-76
2023/05/31 06:03:51;;;;;;;5.00;1.80;;;;;;;17.01;47.88;98464.91;5015300;28;20262;-77
2023/05/31 06:06:17;;;;;;;5.00;1.80;;;;;;;17.05;47.00;98466.84;5015187;28;20663;-78
2023/05/31 06:08:44;;;;;;;2.63;1.90;;;;;;;16.91;46.29;98467.44;5015755;28;20213;-78
2023/05/31 06:11:11;;;;;;;3.73;1.83;;;;;;;16.96;48.57;98473.72;5015266;28;20627;-77
2023/05/31 06:13:38;;;;;;;6.77;2.00;;;;;;;17.11;47.71;98471.22;5015387;28;20210;-77
2023/05/31 06:16:05;;;;;;;3.87;2.00;;;;;;;17.35;47.65;98463.69;5015133;28;20231;-77
2023/05/31 06:18:32;;;;;;;3.97;2.33;;;;;;;17.33;45.82;98469.31;5015593;28;20232;-77
2023/05/31 06:20:59;;;;;;;3.87;2.00;;;;;;;17.35;48.82;98467.22;5015531;28;20210;-77
2023/05/31 06:23:27;;;;;;;5.63;2.10;;;;;;;17.41;47.36;98462.75;5015464;28;20203;-77
2023/05/31 06:25:53;;;;;;;6.53;2.27;;;;;;;17.66;47.12;98471.06;5016095;28;20313;-77
2023/05/31 06:28:20;;;;;;;5.93;2.10;;;;;;;17.62;46.30;98459.19;5015628;28;20206;-77
2023/05/31 06:30:46;;;;;;;2.97;2.03;;;;;;;17.69;45.33;98459.81;5015353;28;20656;-77
2023/05/31 06:33:13;;;;;;;5.93;2.10;;;;;;;17.70;46.57;98464.94;5015671;28;20218;-77
2023/05/31 06:35:42;;;;;;;4.90;2.20;;;;;;;17.78;45.82;98464.44;5016541;28;20234;-77
2023/05/31 06:38:14;;;;;;;6.20;2.10;;;;;;;17.68;46.38;98463.53;5014220;28;20222;-77
2023/05/31 06:40:41;;;;;;;5.27;2.30;;;;;;;17.87;44.48;98456.75;5013348;28;20245;-77
2023/05/31 06:43:07;;;;;;;5.83;2.50;;;;;;;17.68;46.85;98456.28;5014381;28;20210;-77
2023/05/31 06:45:33;;;;;;;5.90;1.97;;;;;;;17.91;46.98;98464.03;5014330;28;20313;-77
2023/05/31 06:48:00;;;;;;;7.23;2.33;;;;;;;17.94;46.13;98462.72;5013296;28;20206;-76
2023/05/31 06:50:26;;;;;;;3.50;2.30;;;;;;;18.07;44.54;98456.91;5013637;28;20203;-75
2023/05/31 06:52:52;;;;;;;3.97;2.23;;;;;;;18.20;44.02;98448.41;5015231;28;20212;-76
2023/05/31 06:55:19;;;;;;;3.67;1.93;;;;;;;18.18;45.02;98454.03;5014635;28;20212;-76
2023/05/31 06:57:45;;;;;;;5.43;2.00;;;;;;;18.34;44.35;98445.06;5014389;28;20227;-75
2023/05/31 07:00:12;;;;;;;5.33;2.30;;;;;;;18.36;44.43;98453.66;5014038;28;20205;-73
2023/05/31 07:02:38;;;;;;;2.53;2.10;;;;;;;18.45;44.11;98446.72;5013657;28;20205;-73
2023/05/31 07:05:05;;;;;;;7.37;2.60;;;;;;;18.63;42.74;98442.78;5014000;28;20198;-73
2023/05/31 07:07:31;;;;;;;6.20;2.73;;;;;;;18.55;44.36;98448.69;4994204;28;20239;-73
2023/05/31 07:09:58;;;;;;;3.50;2.33;;;;;;;18.50;42.96;98445.97;4994877;28;20203;-73
2023/05/31 07:12:24;;;;;;;4.87;2.70;;;;;;;18.58;43.07;98448.97;4994791;28;20207;-73
2023/05/31 07:14:50;;;;;;;5.57;2.80;;;;;;;18.60;42.79;98437.94;4994799;28;20222;-73
2023/05/31 07:17:17;;;;;;;5.90;3.60;;;;;;;18.54;42.88;98447.03;4994496;28;20238;-73
2023/05/31 07:19:50;;;;;;;6.37;3.07;;;;;;;18.74;43.01;98447.97;4994555;28;20207;-73
2023/05/31 07:22:17;;;;;;;4.47;2.60;;;;;;;18.90;42.55;98446.16;4994396;28;20208;-73
2023/05/31 07:24:44;;;;;;;5.03;2.70;;;;;;;19.02;41.69;98444.91;4994293;28;20207;-72
2023/05/31 07:27:11;;;;;;;4.23;2.30;;;;;;;18.98;41.92;98427.63;5004827;28;20222;-73
2023/05/31 07:29:38;;;;;;;4.10;2.57;;;;;;;19.08;42.45;98432.22;5013669;28;20202;-73
2023/05/31 07:32:04;;;;;;;4.27;2.50;;;;;;;19.16;41.61;98429.84;5013746;28;20199;-72
2023/05/31 07:34:30;;;;;;;6.60;3.13;;;;;;;19.26;42.12;98432.59;5013565;28;20207;-73
2023/05/31 07:36:57;;;;;;;5.67;3.77;;;;;;;19.42;40.38;98433.47;5013362;28;20218;-73
2023/05/31 07:39:23;;;;;;;10.13;4.00;;;;;;;19.31;40.24;98437.19;5013666;28;20206;-73
2023/05/31 07:41:50;;;;;;;6.47;3.60;;;;;;;19.46;40.66;98424.56;5014953;28;20650;-73
2023/05/31 07:44:18;;;;;;;4.90;2.57;;;;;;;19.55;41.84;98424.88;5011314;28;20206;-73
2023/05/31 07:46:45;;;;;;;7.57;2.30;;;;;;;19.80;41.58;98430.28;5013878;28;20228;-72
2023/05/31 07:49:11;;;;;;;4.80;2.17;;;;;;;19.80;40.39;98416.00;5014105;28;20286;-73
2023/05/31 07:51:38;;;;;;;2.77;2.07;;;;;;;19.87;40.60;98421.91;5014640;28;20206;-73
2023/05/31 07:54:04;;;;;;;4.20;2.80;;;;;;;19.85;39.95;98411.38;5013967;28;20289;-73
2023/05/31 07:56:31;;;;;;;4.97;2.17;;;;;;;19.98;40.37;98410.84;5014669;28;20226;-72
2023/05/31 07:58:57;;;;;;;4.80;2.40;;;;;;;20.07;40.78;98420.03;5017458;28;20210;-72
2023/05/31 08:01:23;;;;;;;2.97;1.90;;;;;;;20.23;40.53;98424.38;5017790;28;20251;-72
2023/05/31 08:03:50;;;;;;;5.87;2.60;;;;;;;20.45;40.60;98421.38;5017688;28;20217;-72
2023/05/31 08:06:17;;;;;;;4.70;3.07;;;;;;;20.36;39.26;98412.19;5017393;28;20234;-73
2023/05/31 08:08:44;;;;;;;8.13;2.77;;;;;;;20.56;38.51;98412.97;5017816;28;20210;-73
2023/05/31 08:11:11;;;;;;;5.20;2.70;;;;;;;20.53;39.39;98404.63;5017969;28;20206;-73
2023/05/31 08:13:39;;;;;;;4.40;2.93;;;;;;;20.42;39.32;98408.41;5017241;28;20205;-73
2023/05/31 08:16:06;;;;;;;3.57;2.77;;;;;;;20.53;39.71;98410.00;5017191;28;20724;-73
2023/05/31 08:18:32;;;;;;;7.43;2.57;;;;;;;20.62;38.73;98408.38;5017166;28;20233;-73
2023/05/31 08:20:59;;;;;;;7.97;4.23;;;;;;;20.89;39.43;98403.41;5016858;28;20228;-72
2023/05/31 08:23:25;;;;;;;5.57;2.27;;;;;;;20.91;38.45;98403.97;5016983;28;20203;-73
2023/05/31 08:25:53;;;;;;;5.20;2.50;;;;;;;21.06;39.48;98406.59;5016621;28;20729;-73
2023/05/31 08:28:19;;;;;;;5.70;2.17;;;;;;;21.27;40.02;98410.84;5017336;28;20218;-73
2023/05/31 08:30:45;;;;;;;6.33;5.10;;;;;;;21.31;37.77;98406.50;5017336;28;20213;-73
2023/05/31 08:33:12;;;;;;;5.87;2.60;;;;;;;21.42;37.94;98405.31;5017279;28;20213;-73
2023/05/31 08:35:39;;;;;;;6.70;2.63;;;;;;;21.35;38.72;98407.56;5019679;28;20567;-73
2023/05/31 08:38:05;;;;;;;8.50;4.97;;;;;;;21.22;37.66;98408.97;5016924;28;20254;-73
2023/05/31 08:40:32;;;;;;;6.73;4.37;;;;;;;21.27;37.96;98405.44;5016894;28;20209;-73
2023/05/31 08:43:05;;;;;;;7.60;3.87;;;;;;;21.19;37.54;98404.13;5017068;28;20256;-72
2023/05/31 08:45:35;;;;;;;13.67;10.87;;;;;;;21.01;38.20;98402.03;5015821;28;20310;-73
2023/05/31 08:48:39;;;;;;;7.33;2.40;;;;;;;21.26;37.84;98393.78;5011058;28;20207;-73
2023/05/31 08:51:07;;;;;;;2.57;2.20;;;;;;;21.36;38.22;98395.63;5015396;28;20576;-73
2023/05/31 08:53:35;;;;;;;4.70;2.73;;;;;;;21.26;38.93;98385.66;5016575;28;20217;-73
2023/05/31 08:56:02;;;;;;;6.00;3.53;;;;;;;21.61;38.27;98390.06;5016728;28;20227;-73
2023/05/31 08:58:29;;;;;;;3.30;2.17;;;;;;;21.79;39.16;98392.13;5016692;28;20226;-73
2023/05/31 09:00:56;;;;;;;6.33;4.00;;;;;;;21.69;37.46;98393.00;5016715;28;20213;-73
2023/05/31 09:03:23;;;;;;;4.03;2.43;;;;;;;21.91;37.47;98384.44;5016432;28;20206;-73
2023/05/31 09:05:50;;;;;;;5.70;2.45;;;;;;;22.06;39.28;98387.03;5016009;28;20235;-73
2023/05/31 09:08:16;;;;;;;4.97;3.20;;;;;;;22.08;36.39;98384.84;5015146;28;20706;-73
2023/05/31 09:10:42;;;;;;;5.67;2.50;;;;;;;21.97;37.08;98394.16;5016495;28;20211;-73
2023/05/31 09:13:09;;;;;;;6.03;2.40;;;;;;;22.12;36.98;98389.38;5016549;28;20206;-73
2023/05/31 09:15:38;;;;;;;3.30;2.08;;;;;;;22.07;37.51;98381.31;5016223;28;20253;-73
2023/05/31 09:18:21;;;;;;;6.10;2.95;;;;;;;22.47;36.62;98382.88;5015837;28;20693;-73
2023/05/31 09:20:52;;;;;;;3.45;2.45;;;;;;;22.63;36.57;98385.13;5016047;28;20206;-73
2023/05/31 09:23:19;;;;;;;5.30;2.58;;;;;;;22.70;36.38;98388.28;5015995;28;20206;-73
2023/05/31 09:25:51;;;;;;;4.40;2.47;;;;;;;22.65;34.91;98390.28;5016472;28;20230;-73
2023/05/31 09:28:19;;;;;;;4.90;3.00;;;;;;;22.73;34.75;98389.63;5016039;28;20721;-73
2023/05/31 09:30:45;;;;;;;7.03;3.78;;;;;;;22.66;34.56;98392.66;5016337;28;20272;-73
2023/05/31 09:33:14;;;;;;;3.97;2.15;;;;;;;23.00;35.12;98385.22;5015882;28;20691;-73
2023/05/31 09:35:59;;;;;;;6.07;2.85;;;;;;;22.82;34.50;98391.41;5015836;28;20222;-73
2023/05/31 09:38:36;;;;;;;4.13;2.30;;;;;;;22.90;34.12;98381.81;4996215;28;20223;-73
2023/05/31 09:41:33;;;;;;;3.72;2.30;;;;;;;23.05;33.85;98382.44;4996322;28;20214;-73
2023/05/31 09:43:59;;;;;;;5.88;2.20;;;;;;;23.17;34.59;98387.44;4991366;28;20204;-73
2023/05/31 09:46:27;;;;;;;5.45;2.33;;;;;;;23.16;34.92;98374.97;4995686;28;20234;-73
2023/05/31 09:49:01;;;;;;;4.10;2.63;;;;;;;23.17;34.05;98376.59;4996724;28;20281;-73
2023/05/31 09:51:28;;;;;;;4.43;2.38;;;;;;;23.32;34.61;98376.41;4996329;28;20205;-73
2023/05/31 09:53:56;;;;;;;3.92;2.47;;;;;;;23.22;32.86;98379.25;4995851;28;20218;-73
2023/05/31 09:56:24;;;;;;;8.35;3.83;;;;;;;22.93;34.32;98371.19;4995371;28;20230;-73
2023/05/31 09:58:51;;;;;;;7.60;2.45;;;;;;;23.38;33.43;98367.91;4995760;28;20223;-73
2023/05/31 10:01:18;;;;;;;5.22;2.70;;;;;;;23.28;33.33;98372.66;4995780;28;20599;-73
2023/05/31 10:03:46;;;;;;;9.57;4.22;;;;;;;23.29;32.56;98369.66;4995639;28;20703;-73
2023/05/31 10:06:15;;;;;;;3.60;2.30;;;;;;;23.69;34.18;98371.78;4995659;28;20271;-73
2023/05/31 10:08:42;;;;;;;4.22;2.60;;;;;;;23.86;33.60;98363.09;4996236;28;20250;-73
2023/05/31 10:11:12;;;;;;;4.53;2.60;;;;;;;23.99;32.56;98359.66;4996433;28;20207;-74
2023/05/31 10:13:43;;;;;;;5.40;2.30;;;;;;;24.15;32.52;98369.16;4995629;28;20738;-74
2023/05/31 10:16:11;;;;;;;5.22;2.00;;;;;;;24.07;31.53;98365.22;4996063;28;20278;-74
2023/05/31 10:18:41;;;;;;;5.72;2.45;;;;;;;24.15;31.55;98353.63;4995827;28;20227;-74
2023/05/31 10:21:20;;;;;;;3.85;2.20;;;;;;;23.97;31.89;98362.66;4995709;28;20207;-74
2023/05/31 10:23:58;;;;;;;4.90;1.92;;;;;;;23.95;31.26;98361.34;4995984;28;20245;-74
2023/05/31 10:26:32;;;;;;;6.88;2.45;;;;;;;24.11;30.91;98368.13;4995811;28;20231;-74
2023/05/31 10:29:18;;;;;;;3.78;2.05;;;;;;;23.94;30.86;98351.59;4995299;28;20642;-74
2023/05/31 10:31:50;;;;;;;5.93;2.28;;;;;;;23.82;30.87;98357.44;4995976;28;20222;-74
2023/05/31 10:34:27;;;;;;;6.03;2.10;;;;;;;23.80;30.37;98358.84;4995285;28;20613;-75
2023/05/31 10:36:55;;;;;;;3.45;2.30;;;;;;;23.96;30.04;98365.66;4995548;28;20231;-74
2023/05/31 10:39:40;;;;;;;4.03;2.20;;;;;;;23.87;30.54;98359.25;4995236;28;20247;-74
2023/05/31 10:42:21;;;;;;;5.55;3.03;;;;;;;24.07;31.06;98350.81;5013801;28;20203;-76
2023/05/31 10:44:55;;;;;;;7.43;2.08;;;;;;;24.27;30.73;98342.28;5014680;28;20202;-76
2023/05/31 10:47:27;;;;;;;2.95;2.38;;;;;;;24.16;31.19;98341.66;5014884;28;20240;-76
2023/05/31 10:49:56;;;;;;;3.05;1.95;;;;;;;24.35;30.31;98338.88;5011640;28;20195;-76
2023/05/31 10:52:23;;;;;;;6.53;2.78;;;;;;;24.20;30.66;98339.19;5014614;28;20237;-75
2023/05/31 10:54:49;;;;;;;3.78;2.10;;;;;;;24.30;30.21;98337.09;5013970;28;20666;-75
2023/05/31 10:57:16;;;;;;;4.00;2.65;;;;;;;24.45;29.42;98341.41;5013612;28;20586;-76
2023/05/31 10:59:45;;;;;;;24.42;19.73;;;;;;;24.34;29.73;98337.28;5014070;28;20289;-75
2023/05/31 11:02:12;;;;;;;3.40;2.35;;;;;;;24.55;29.62;98339.31;5011347;28;20661;-75
2023/05/31 11:04:39;;;;;;;4.28;2.00;;;;;;;24.42;29.73;98331.94;5014243;28;20210;-75
2023/05/31 11:07:14;;;;;;;5.03;2.72;;;;;;;24.19;30.00;98327.50;5013720;28;20232;-75
2023/05/31 11:09:42;;;;;;;4.68;3.67;;;;;;;24.15;29.80;98323.75;5014417;28;20202;-75
2023/05/31 11:12:12;;;;;;;5.10;2.65;;;;;;;24.66;30.52;98334.50;5014013;28;20252;-76
2023/05/31 11:14:39;;;;;;;8.63;7.75;;;;;;;24.53;28.90;98327.13;5013966;28;20194;-75
2023/05/31 11:17:07;;;;;;;4.95;2.22;;;;;;;24.61;29.55;98334.59;5013290;28;20253;-74
2023/05/31 11:19:36;;;;;;;3.75;2.30;;;;;;;24.60;30.05;98333.00;5013632;28;20195;-72
2023/05/31 11:22:11;;;;;;;4.22;2.03;;;;;;;24.61;29.12;98329.97;5013850;28;20206;-73
2023/05/31 11:24:50;;;;;;;5.18;2.15;;;;;;;24.30;28.99;98330.84;5011880;28;20198;-73
2023/05/31 11:27:18;;;;;;;4.07;2.20;;;;;;;24.53;29.08;98319.78;5011748;28;20222;-73
2023/05/31 11:29:46;;;;;;;4.82;2.20;;;;;;;24.40;29.67;98317.84;5013569;28;20583;-72
2023/05/31 11:32:12;;;;;;;6.97;2.20;;;;;;;24.49;31.07;98317.94;5013246;28;20674;-73
2023/05/31 11:35:02;;;;;;;6.47;3.60;;;;;;;24.31;30.39;98311.50;5013825;28;20218;-73
2023/05/31 11:37:29;;;;;;;4.47;2.10;;;;;;;24.51;29.85;98319.25;5013887;28;20226;-73
2023/05/31 11:39:56;;;;;;;3.85;2.40;;;;;;;24.29;29.38;98319.16;5013839;28;20206;-73